createdAt,value
2023-03-17T00:01:06.150Z,1228.00
2023-03-17T00:05:06.101Z,1221.00
2023-03-17T00:09:06.103Z,1219.00
2023-03-17T00:13:06.068Z,1215.00
2023-03-17T00:17:06.047Z,1215.00
2023-03-17T00:21:06.050Z,1206.00
2023-03-17T00:25:06.040Z,1197.00
2023-03-17T00:29:06.074Z,1188.00
2023-03-17T00:33:06.048Z,1182.00
2023-03-17T00:37:06.079Z,1177.00
2023-03-17T00:41:06.097Z,1169.00
2023-03-17T00:45:06.031Z,1162.00
2023-03-17T00:49:06.061Z,1160.00
2023-03-17T00:53:06.030Z,1156.00
2023-03-17T00:57:06.014Z,1153.00
2023-03-17T01:01:05.977Z,1140.00
2023-03-17T01:05:06.914Z,1142.00
2023-03-17T01:09:05.981Z,1136.00
2023-03-17T01:13:05.919Z,1130.00
2023-03-17T01:17:05.896Z,1131.00
2023-03-17T01:21:05.900Z,1120.00
2023-03-17T01:25:05.933Z,1116.00
2023-03-17T01:29:05.911Z,1113.00
2023-03-17T01:33:05.889Z,1101.00
2023-03-17T01:37:05.867Z,1102.00
2023-03-17T01:41:05.866Z,1100.00
2023-03-17T01:45:06.253Z,1088.00
2023-03-17T01:49:05.893Z,1075.00
2023-03-17T01:53:05.852Z,1073.00
2023-03-17T01:57:05.851Z,1065.00
2023-03-17T02:01:05.894Z,1059.00
2023-03-17T02:05:05.796Z,1062.00
2023-03-17T02:09:05.787Z,1054.00
2023-03-17T02:13:05.870Z,1044.00
2023-03-17T02:17:05.781Z,1038.00
2023-03-17T02:21:05.788Z,1042.00
2023-03-17T02:25:05.744Z,1034.00
2023-03-17T02:29:05.763Z,1036.00
2023-03-17T02:33:05.767Z,1037.00
2023-03-17T02:37:05.795Z,1034.00
2023-03-17T02:41:05.756Z,1027.00
2023-03-17T02:45:05.774Z,1025.00
2023-03-17T02:49:05.795Z,1016.00
2023-03-17T02:53:05.786Z,1009.00
2023-03-17T02:57:05.851Z,1002.00
2023-03-17T03:01:05.878Z,999.00
2023-03-17T03:05:05.802Z,995.00
2023-03-17T03:09:05.750Z,996.00
2023-03-17T03:13:05.783Z,992.00
2023-03-17T03:17:05.797Z,988.00
2023-03-17T03:21:05.810Z,983.00
2023-03-17T03:25:05.850Z,979.00
2023-03-17T03:29:05.800Z,975.00
2023-03-17T03:33:05.810Z,970.00
2023-03-17T03:37:05.772Z,970.00
2023-03-17T03:41:05.843Z,962.00
2023-03-17T03:45:05.838Z,960.00
2023-03-17T03:49:05.821Z,958.00
2023-03-17T03:53:05.860Z,949.00
2023-03-17T03:57:05.859Z,947.00
2023-03-17T04:01:05.883Z,952.00
2023-03-17T04:05:05.960Z,939.00
2023-03-17T04:09:05.911Z,936.00
2023-03-17T04:13:05.963Z,932.00
2023-03-17T04:17:05.997Z,929.00
2023-03-17T04:21:05.992Z,923.00
2023-03-17T04:25:06.068Z,920.00
2023-03-17T04:29:06.075Z,920.00
2023-03-17T04:33:06.368Z,913.00
2023-03-17T04:37:06.125Z,912.00
2023-03-17T04:41:06.167Z,907.00
2023-03-17T04:45:06.198Z,908.00
2023-03-17T04:49:06.320Z,906.00
2023-03-17T04:53:06.294Z,895.00
2023-03-17T04:57:06.322Z,886.00
2023-03-17T05:01:06.400Z,888.00
2023-03-17T05:05:06.348Z,886.00
2023-03-17T05:09:06.387Z,890.00
2023-03-17T05:13:06.866Z,888.00
2023-03-17T05:17:06.437Z,884.00
2023-03-17T05:21:06.472Z,880.00
2023-03-17T05:25:06.500Z,876.00
2023-03-17T05:29:06.561Z,873.00
2023-03-17T05:33:06.658Z,872.00
2023-03-17T05:37:06.611Z,866.00
2023-03-17T05:41:06.690Z,863.00
2023-03-17T05:45:06.711Z,860.00
2023-03-17T05:49:06.741Z,851.00
2023-03-17T05:53:06.758Z,852.00
2023-03-17T05:57:06.838Z,847.00
2023-03-17T06:01:06.868Z,844.00
2023-03-17T06:05:06.909Z,843.00
2023-03-17T06:09:07.017Z,840.00
2023-03-17T06:13:07.016Z,840.00
2023-03-17T06:17:07.406Z,839.00
2023-03-17T06:21:07.115Z,832.00
2023-03-17T06:25:07.139Z,830.00
2023-03-17T06:29:07.174Z,823.00
2023-03-17T06:33:07.258Z,820.00
2023-03-17T06:37:07.249Z,815.00
2023-03-17T06:41:07.325Z,819.00
2023-03-17T06:45:07.345Z,815.00
2023-03-17T06:49:07.370Z,816.00
2023-03-17T06:53:07.387Z,805.00
2023-03-17T06:57:07.389Z,807.00
2023-03-17T07:01:07.396Z,812.00
2023-03-17T07:05:07.446Z,810.00
2023-03-17T07:09:07.472Z,812.00
2023-03-17T07:13:07.471Z,812.00
2023-03-17T07:17:07.522Z,813.00
2023-03-17T07:21:07.598Z,812.00
2023-03-17T07:25:07.563Z,805.00
2023-03-17T07:29:07.576Z,801.00
2023-03-17T07:33:07.683Z,795.00
2023-03-17T07:37:07.633Z,792.00
2023-03-17T07:41:07.772Z,799.00
2023-03-17T07:45:07.697Z,803.00
2023-03-17T07:49:07.708Z,798.00
2023-03-17T07:53:07.765Z,794.00
2023-03-17T07:57:07.783Z,793.00
2023-03-17T08:01:07.808Z,793.00
2023-03-17T08:05:07.777Z,793.00
2023-03-17T08:09:07.757Z,793.00
2023-03-17T08:13:07.815Z,807.00
2023-03-17T08:17:07.861Z,824.00
2023-03-17T08:21:07.800Z,836.00
2023-03-17T08:25:07.890Z,844.00
2023-03-17T08:29:08.120Z,855.00
2023-03-17T08:33:08.111Z,866.00
2023-03-17T08:37:11.185Z,878.00
2023-03-17T08:41:07.957Z,880.00
2023-03-17T08:45:07.993Z,894.00
2023-03-17T08:49:07.896Z,909.00
2023-03-17T08:53:07.866Z,990.00
2023-03-17T08:57:07.888Z,1177.00
2023-03-17T09:01:07.830Z,1060.00
2023-03-17T09:05:07.740Z,956.00
2023-03-17T09:09:07.801Z,911.00
2023-03-17T09:13:07.679Z,894.00
2023-03-17T09:17:07.655Z,841.00
2023-03-17T09:21:07.637Z,783.00
2023-03-17T09:25:07.614Z,778.00
2023-03-17T09:29:07.525Z,769.00
2023-03-17T09:33:07.545Z,761.00
2023-03-17T09:37:07.649Z,770.00
2023-03-17T09:41:07.413Z,878.00
2023-03-17T09:45:07.647Z,974.00
2023-03-17T09:49:07.846Z,967.00
2023-03-17T09:53:07.961Z,963.00
2023-03-17T09:57:08.093Z,966.00
2023-03-17T10:01:08.215Z,969.00
2023-03-17T10:05:08.350Z,970.00
2023-03-17T10:09:08.519Z,973.00
2023-03-17T10:13:08.549Z,974.00
2023-03-17T10:17:08.631Z,969.00
2023-03-17T10:21:08.762Z,973.00
2023-03-17T10:25:08.901Z,977.00
2023-03-17T10:29:09.043Z,975.00
2023-03-17T10:33:09.137Z,977.00
2023-03-17T10:37:09.184Z,975.00
2023-03-17T10:41:09.273Z,977.00
2023-03-17T10:45:09.351Z,975.00
2023-03-17T10:49:09.440Z,979.00
2023-03-17T10:53:09.535Z,981.00
2023-03-17T10:57:09.689Z,984.00
2023-03-17T11:01:09.742Z,980.00
2023-03-17T11:05:09.798Z,978.00
2023-03-17T11:09:09.933Z,982.00
2023-03-17T11:13:09.950Z,985.00
2023-03-17T11:17:10.024Z,992.00
2023-03-17T11:21:10.074Z,991.00
2023-03-17T11:25:10.478Z,997.00
2023-03-17T11:29:10.244Z,995.00
2023-03-17T11:33:10.452Z,995.00
2023-03-17T11:37:10.367Z,990.00
2023-03-17T11:41:10.451Z,989.00
2023-03-17T11:45:10.513Z,993.00
2023-03-17T11:49:10.613Z,998.00
2023-03-17T11:53:10.678Z,1001.00
2023-03-17T11:57:10.770Z,993.00
2023-03-17T12:01:10.894Z,999.00
2023-03-17T12:05:11.062Z,998.00
2023-03-17T12:09:11.053Z,999.00
2023-03-17T12:13:11.178Z,999.00
2023-03-17T12:17:11.380Z,996.00
2023-03-17T12:21:11.382Z,1003.00
2023-03-17T12:25:11.438Z,1001.00
2023-03-17T12:29:11.541Z,996.00
2023-03-17T12:33:11.663Z,987.00
2023-03-17T12:37:11.712Z,990.00
2023-03-17T12:41:11.783Z,989.00
2023-03-17T12:45:11.885Z,990.00
2023-03-17T12:49:11.989Z,984.00
2023-03-17T12:53:12.097Z,984.00
2023-03-17T12:57:12.240Z,981.00
2023-03-17T13:01:12.426Z,982.00
2023-03-17T13:05:12.477Z,978.00
2023-03-17T13:09:12.631Z,977.00
2023-03-17T13:13:12.791Z,980.00
2023-03-17T13:17:12.938Z,979.00
2023-03-17T13:21:13.122Z,976.00
2023-03-17T13:25:13.297Z,980.00
2023-03-17T13:29:13.472Z,971.00
2023-03-17T13:33:16.325Z,973.00
2023-03-17T13:37:13.607Z,975.00
2023-03-17T13:41:14.062Z,975.00
2023-03-17T13:45:13.549Z,976.00
2023-03-17T13:49:13.501Z,970.00
2023-03-17T13:53:13.438Z,965.00
2023-03-17T13:57:13.487Z,956.00
2023-03-17T14:01:20.524Z,952.00
2023-03-17T14:05:13.388Z,950.00
2023-03-17T14:09:13.429Z,948.00
2023-03-17T14:13:13.357Z,943.00
2023-03-17T14:17:13.258Z,939.00
2023-03-17T14:21:13.314Z,942.00
2023-03-17T14:25:13.235Z,940.00
2023-03-17T14:29:13.202Z,939.00
2023-03-17T14:33:13.159Z,933.00
2023-03-17T14:37:13.117Z,925.00
2023-03-17T14:41:13.081Z,923.00
2023-03-17T14:45:13.117Z,924.00
2023-03-17T14:49:13.030Z,919.00
2023-03-17T14:53:13.007Z,914.00
2023-03-17T14:57:12.995Z,902.00
2023-03-17T15:01:12.928Z,897.00
2023-03-17T15:05:12.952Z,900.00
2023-03-17T15:09:12.970Z,900.00
2023-03-17T15:13:13.098Z,900.00
2023-03-17T15:17:13.197Z,896.00
2023-03-17T15:21:13.369Z,888.00
2023-03-17T15:25:13.543Z,883.00
2023-03-17T15:29:13.582Z,878.00
2023-03-17T15:33:13.726Z,869.00
2023-03-17T15:37:13.713Z,861.00
2023-03-17T15:41:13.807Z,859.00
2023-03-17T15:45:13.820Z,849.00
2023-03-17T15:49:13.799Z,848.00
2023-03-17T15:53:13.854Z,843.00
2023-03-17T15:57:13.798Z,838.00
2023-03-17T16:01:13.867Z,832.00
2023-03-17T16:05:13.774Z,833.00
2023-03-17T16:09:13.740Z,831.00
2023-03-17T16:13:13.713Z,826.00
2023-03-17T16:17:13.704Z,825.00
2023-03-17T16:21:13.668Z,824.00
2023-03-17T16:25:13.687Z,822.00
2023-03-17T16:29:13.631Z,822.00
2023-03-17T16:33:13.647Z,813.00
2023-03-17T16:37:13.634Z,808.00
2023-03-17T16:41:13.578Z,801.00
2023-03-17T16:45:13.632Z,798.00
2023-03-17T16:49:13.585Z,792.00
2023-03-17T16:53:13.636Z,787.00
2023-03-17T16:57:13.613Z,786.00
2023-03-17T17:01:13.648Z,786.00
2023-03-17T17:05:13.628Z,783.00
2023-03-17T17:09:13.620Z,781.00
2023-03-17T17:13:13.631Z,775.00
2023-03-17T17:17:13.636Z,771.00
2023-03-17T17:21:13.679Z,774.00
2023-03-17T17:25:13.664Z,772.00
2023-03-17T17:29:13.696Z,770.00
2023-03-17T17:33:13.721Z,766.00
2023-03-17T17:37:13.671Z,765.00
2023-03-17T17:41:13.701Z,763.00
2023-03-17T17:45:13.739Z,756.00
2023-03-17T17:49:13.734Z,754.00
2023-03-17T17:53:13.803Z,748.00
2023-03-17T17:57:13.781Z,744.00
2023-03-17T18:01:13.877Z,743.00
2023-03-17T18:05:13.915Z,744.00
2023-03-17T18:09:13.971Z,746.00
2023-03-17T18:13:14.036Z,746.00
2023-03-17T18:17:14.081Z,740.00
2023-03-17T18:21:14.152Z,743.00
2023-03-17T18:25:14.216Z,745.00
2023-03-17T18:29:14.233Z,743.00
2023-03-17T18:33:14.290Z,743.00
2023-03-17T18:37:14.323Z,739.00
2023-03-17T18:41:14.388Z,735.00
2023-03-17T18:45:14.423Z,740.00
2023-03-17T18:49:14.442Z,741.00
2023-03-17T18:53:14.503Z,738.00
2023-03-17T18:57:14.530Z,736.00
2023-03-17T19:01:14.726Z,740.00
2023-03-17T19:05:14.668Z,740.00
2023-03-17T19:09:14.670Z,743.00
2023-03-17T19:13:14.715Z,734.00
2023-03-17T19:17:14.776Z,734.00
2023-03-17T19:21:14.797Z,729.00
2023-03-17T19:25:14.829Z,729.00
2023-03-17T19:29:14.863Z,731.00
2023-03-17T19:33:14.910Z,725.00
2023-03-17T19:37:15.002Z,726.00
2023-03-17T19:41:15.052Z,726.00
2023-03-17T19:45:15.048Z,724.00
2023-03-17T19:49:15.127Z,727.00
2023-03-17T19:53:15.229Z,724.00
2023-03-17T19:57:15.263Z,726.00
2023-03-17T20:01:15.305Z,731.00
2023-03-17T20:05:15.320Z,727.00
2023-03-17T20:09:15.401Z,726.00
2023-03-17T20:13:15.471Z,732.00
2023-03-17T20:17:15.503Z,729.00
2023-03-17T20:21:15.572Z,722.00
2023-03-17T20:25:15.659Z,719.00
2023-03-17T20:29:15.684Z,718.00
2023-03-17T20:33:15.755Z,716.00
2023-03-17T20:37:15.843Z,719.00
2023-03-17T20:41:15.902Z,722.00
2023-03-17T20:45:16.003Z,717.00
2023-03-17T20:49:16.023Z,714.00
2023-03-17T20:53:16.090Z,711.00
2023-03-17T20:57:16.204Z,706.00
2023-03-17T21:01:16.303Z,706.00
2023-03-17T21:05:16.354Z,701.00
2023-03-17T21:09:16.384Z,704.00
2023-03-17T21:13:16.514Z,707.00
2023-03-17T21:17:16.556Z,704.00
2023-03-17T21:21:16.739Z,709.00
2023-03-17T21:25:16.709Z,699.00
2023-03-17T21:29:16.815Z,695.00
2023-03-17T21:33:16.856Z,701.00
2023-03-17T21:37:17.281Z,695.00
2023-03-17T21:41:16.994Z,696.00
2023-03-17T21:45:17.061Z,695.00
2023-03-17T21:49:17.176Z,694.00
2023-03-17T21:53:17.199Z,687.00
2023-03-17T21:57:17.304Z,683.00
2023-03-17T22:01:17.467Z,685.00
2023-03-17T22:05:17.494Z,690.00
2023-03-17T22:09:19.128Z,690.00
2023-03-17T22:13:17.683Z,688.00
2023-03-17T22:17:17.761Z,683.00
2023-03-17T22:21:17.900Z,678.00
2023-03-17T22:25:17.886Z,678.00
2023-03-17T22:29:17.946Z,676.00
2023-03-17T22:33:18.044Z,676.00
2023-03-17T22:37:18.134Z,680.00
2023-03-17T22:41:18.258Z,672.00
2023-03-17T22:45:18.338Z,669.00
2023-03-17T22:49:18.451Z,672.00
2023-03-17T22:53:18.488Z,671.00
2023-03-17T22:57:18.590Z,670.00
2023-03-17T23:01:18.761Z,667.00
2023-03-17T23:05:18.762Z,664.00
2023-03-17T23:09:18.843Z,665.00
2023-03-17T23:13:18.917Z,660.00
2023-03-17T23:17:18.993Z,661.00
2023-03-17T23:21:19.070Z,664.00
2023-03-17T23:25:19.170Z,664.00
2023-03-17T23:29:19.210Z,666.00
2023-03-17T23:33:19.284Z,666.00
2023-03-17T23:37:19.416Z,656.00
2023-03-17T23:41:19.430Z,659.00
2023-03-17T23:45:19.508Z,662.00
2023-03-17T23:49:19.597Z,660.00
2023-03-17T23:53:19.693Z,661.00
2023-03-17T23:57:19.777Z,660.00
